• Join FlightAware (Why Join?)
  • Login
  • US Flag 
11:43PM EDT


 

Airport Tracker/Info


-or-


 

Live Flight TrackerFlight Track Log ✈ AVN10 ✈ 16-Sep-2013 ✈ NVVV / VLI - YSSY / SYD

Flight Track Log - Related Links

Times and Time Zones

All times are in EDT time to prevent confusion due to time zone crossing. See the AVN10 flight status page for this flight to view local times or setup timezone preferences in your user account.

Time Position Orientation Groundspeed Altitude Reporting Facility
EDT Latitude Longitude Course Direction KTS MPH feet Rate Location/Type
04:00PM -18.1132 168.1088 206° Southwest  Level FlightAware Approximate
04:01PM -18.2166 168.0559 206° Southwest  Level FlightAware Approximate
04:02PM -18.3200 168.0029 206° Southwest  Level FlightAware Approximate
04:03PM -18.4234 167.9499 206° Southwest  Level FlightAware Approximate
04:04PM -18.5106 167.8709 204° Southwest  Level Estimated
04:05PM -18.6159 167.8221 204° Southwest  Level FlightAware Approximate
04:06PM -18.7212 167.7732 204° Southwest  Level FlightAware Approximate
04:07PM -18.8264 167.7242 204° Southwest  Level FlightAware Approximate
04:08PM -18.9316 167.6752 204° Southwest  Level FlightAware Approximate
04:09PM -19.0368 167.6261 204° Southwest  Level FlightAware Approximate
04:10PM -19.1420 167.5770 204° Southwest  Level FlightAware Approximate
04:11PM -19.2472 167.5278 204° Southwest  Level FlightAware Approximate
04:12PM -19.3524 167.4786 204° Southwest  Level FlightAware Approximate
04:13PM -19.4576 167.4292 204° Southwest  Level FlightAware Approximate
04:14PM -19.5627 167.3799 204° Southwest  Level FlightAware Approximate
04:15PM -19.6679 167.3304 204° Southwest  Level FlightAware Approximate
04:16PM -19.7730 167.2809 204° Southwest  Level FlightAware Approximate
04:17PM -19.8781 167.2313 204° Southwest  Level FlightAware Approximate
04:18PM -19.9832 167.1817 204° Southwest  Level FlightAware Approximate
04:19PM -20.0883 167.1320 204° Southwest  Level FlightAware Approximate
04:20PM -20.1934 167.0822 204° Southwest  Level FlightAware Approximate
04:21PM -20.2984 167.0323 204° Southwest  Level FlightAware Approximate
04:22PM -20.4035 166.9824 204° Southwest  Level FlightAware Approximate
04:23PM -20.5085 166.9325 204° Southwest  Level FlightAware Approximate
04:24PM -20.6135 166.8824 204° Southwest  Level FlightAware Approximate
04:25PM -20.7185 166.8323 204° Southwest  Level FlightAware Approximate
04:26PM -20.8235 166.7821 204° Southwest  Level FlightAware Approximate
04:27PM -20.9073 166.6979 224° Southwest  Level Estimated
04:28PM -21.0005 166.6256 216° Southwest  Level FlightAware Approximate
04:29PM -21.0936 166.5533 216° Southwest  Level FlightAware Approximate
04:30PM -21.1866 166.4809 216° Southwest  Level FlightAware Approximate
04:31PM -21.2797 166.4084 216° Southwest  Level FlightAware Approximate
04:32PM -21.3727 166.3358 216° Southwest  Level FlightAware Approximate
04:33PM -21.4656 166.2631 216° Southwest  Level FlightAware Approximate
04:34PM -21.5586 166.1903 216° Southwest  Level FlightAware Approximate
04:35PM -21.6515 166.1174 216° Southwest  Level FlightAware Approximate
04:36PM -21.7444 166.0444 216° Southwest  Level FlightAware Approximate
04:37PM -21.8372 165.9714 216° Southwest  Level FlightAware Approximate
04:38PM -21.9300 165.8982 216° Southwest  Level FlightAware Approximate
04:39PM -22.0228 165.8250 216° Southwest  Level FlightAware Approximate
04:40PM -22.1156 165.7516 216° Southwest  Level FlightAware Approximate
04:41PM -22.2083 165.6781 216° Southwest  Level FlightAware Approximate
04:42PM -22.3010 165.6046 216° Southwest  Level FlightAware Approximate
04:43PM -22.3936 165.5309 216° Southwest  Level FlightAware Approximate
04:44PM -22.4862 165.4572 216° Southwest  Level FlightAware Approximate
04:45PM -22.5683 165.3700 225° Southwest  Level Estimated
04:46PM -22.6544 165.2874 221° Southwest  Level FlightAware Approximate
04:47PM -22.7405 165.2048 222° Southwest  Level FlightAware Approximate
04:48PM -22.8265 165.1220 222° Southwest  Level FlightAware Approximate
04:49PM -22.9125 165.0391 222° Southwest  Level FlightAware Approximate
04:50PM -22.9984 164.9561 222° Southwest  Level FlightAware Approximate
04:51PM -23.0843 164.8731 222° Southwest  Level FlightAware Approximate
04:52PM -23.1702 164.7899 222° Southwest  Level FlightAware Approximate
04:53PM -23.2560 164.7066 222° Southwest  Level FlightAware Approximate
04:54PM -23.3417 164.6232 222° Southwest  Level FlightAware Approximate
04:55PM -23.4275 164.5397 222° Southwest  Level FlightAware Approximate
04:56PM -23.5131 164.4560 222° Southwest  Level FlightAware Approximate
04:57PM -23.5988 164.3723 222° Southwest  Level FlightAware Approximate
04:58PM -23.6844 164.2885 222° Southwest  Level FlightAware Approximate
04:59PM -23.7699 164.2045 222° Southwest  Level FlightAware Approximate
05:00PM -23.8554 164.1205 222° Southwest  Level FlightAware Approximate
05:01PM -23.9408 164.0363 222° Southwest  Level FlightAware Approximate
05:02PM -24.0263 163.9520 222° Southwest  Level FlightAware Approximate
05:03PM -24.1116 163.8676 222° Southwest  Level FlightAware Approximate
05:04PM -24.1922 163.7777 225° Southwest  Level Estimated
05:05PM -24.2742 163.6893 224° Southwest  Level FlightAware Approximate
05:06PM -24.3561 163.6008 225° Southwest  Level FlightAware Approximate
05:07PM -24.4380 163.5121 225° Southwest  Level FlightAware Approximate
05:08PM -24.5199 163.4234 225° Southwest  Level FlightAware Approximate
05:09PM -24.6017 163.3345 225° Southwest  Level FlightAware Approximate
05:10PM -24.6835 163.2456 225° Southwest  Level FlightAware Approximate
05:11PM -24.7652 163.1565 225° Southwest  Level FlightAware Approximate
05:12PM -24.8468 163.0672 225° Southwest  Level FlightAware Approximate
05:13PM -24.9284 162.9779 225° Southwest  Level FlightAware Approximate
05:13PM -24.4333 163.6056 225° Southwest 38,000  Level Aus ATC (Calculated)
05:15PM -24.5720 163.4522 225° Southwest  Level FlightAware Approximate
05:16PM -24.6419 163.3747 225° Southwest  Level FlightAware Approximate
05:16PM -24.7367 163.2693 225° Southwest 38,000  Level Aus ATC (Calculated)
05:18PM -24.8750 163.1152 225° Southwest  Level FlightAware Approximate
05:18PM -24.9599 163.0203 225° Southwest 38,000  Level Aus ATC (Calculated)
05:19PM -25.0644 162.9033 225° Southwest 38,000 -60 Level Aus ATC (Calculated)
05:21PM -25.2024 162.7483 225° Southwest  Level FlightAware Approximate
05:22PM -25.2719 162.6700 226° Southwest  Level FlightAware Approximate
05:23PM -25.3414 162.5917 226° Southwest  Level FlightAware Approximate
05:24PM -25.4108 162.5132 226° Southwest  Level FlightAware Approximate
05:25PM -25.4802 162.4347 226° Southwest  Level FlightAware Approximate
05:26PM -25.5495 162.3560 226° Southwest  Level FlightAware Approximate
05:27PM -25.6188 162.2773 226° Southwest  Level FlightAware Approximate
05:28PM -25.6880 162.1985 226° Southwest  Level FlightAware Approximate
05:29PM -25.7572 162.1196 226° Southwest  Level FlightAware Approximate
05:30PM -25.8264 162.0405 226° Southwest  Level FlightAware Approximate
05:31PM -25.8955 161.9615 226° Southwest  Level FlightAware Approximate
05:32PM -25.9646 161.8823 226° Southwest  Level FlightAware Approximate
05:33PM -26.0337 161.8030 226° Southwest  Level FlightAware Approximate
05:34PM -26.1027 161.7236 226° Southwest  Level FlightAware Approximate
05:35PM -26.1716 161.6441 226° Southwest  Level FlightAware Approximate
05:36PM -26.2405 161.5646 226° Southwest  Level FlightAware Approximate
05:37PM -26.3094 161.4849 226° Southwest  Level FlightAware Approximate
05:38PM -26.3782 161.4052 226° Southwest  Level FlightAware Approximate
05:39PM -26.4470 161.3253 226° Southwest  Level FlightAware Approximate
05:40PM -26.5157 161.2454 226° Southwest  Level FlightAware Approximate
05:41PM -26.5844 161.1653 226° Southwest  Level FlightAware Approximate
05:42PM -26.6531 161.0852 226° Southwest  Level FlightAware Approximate
05:42PM -27.6145 159.9468 227° Southwest 38,000  Level Aus ATC (Calculated)
05:44PM -27.7356 159.8011 227° Southwest  Level FlightAware Approximate
05:44PM -27.8549 159.6572 227° Southwest 38,000  Level Aus ATC (Calculated)
05:46PM -27.9757 159.5109 227° Southwest  Level FlightAware Approximate
05:46PM -28.0548 159.4150 227° Southwest 38,000  Level Aus ATC (Calculated)
05:47PM -28.0434 159.4288 227° Southwest  Level FlightAware Approximate
05:48PM -28.1754 159.2681 227° Southwest  Level FlightAware Approximate
05:49PM -28.2429 159.1857 227° Southwest  Level FlightAware Approximate
05:50PM -28.3104 159.1031 227° Southwest  Level FlightAware Approximate
05:51PM -28.3115 159.1017 227° Southwest  Level FlightAware Approximate
05:52PM -28.3789 159.0190 227° Southwest  Level FlightAware Approximate
05:53PM -28.4462 158.9362 227° Southwest  Level FlightAware Approximate
05:53PM -28.7430 158.5693 227° Southwest 40,000  Level Aus ATC (Calculated)
05:54PM -28.5135 158.8532 227° Southwest  Level FlightAware Approximate
05:55PM -28.8212 158.4720 227° Southwest  Level FlightAware Approximate
05:56PM -28.8883 158.3884 227° Southwest  Level FlightAware Approximate
05:57PM -28.9552 158.3048 228° Southwest  Level FlightAware Approximate
05:58PM -29.0222 158.2211 228° Southwest  Level FlightAware Approximate
05:58PM -29.1482 158.0629 225° Southwest 40,000  Level Aus ATC (Calculated)
05:59PM -29.0891 158.1372 228° Southwest  Level FlightAware Approximate
06:00PM -29.2316 157.9579 228° Southwest  Level FlightAware Approximate
06:00PM -29.2694 157.9103 48° Northeast 40,000  Level Aus ATC (Calculated)
06:02PM -29.3916 157.7557 228° Southwest  Level FlightAware Approximate
06:03PM -29.4581 157.6712 228° Southwest  Level FlightAware Approximate
06:03PM -29.5514 157.5526 48° Northeast 40,000  Level Aus ATC (Calculated)
06:04PM -29.5247 157.5867 228° Southwest  Level FlightAware Approximate
06:04PM -29.6318 157.4501 48° Northeast 40,000  Level Aus ATC (Calculated)
06:06PM -29.7486 157.3007 228° Southwest  Level FlightAware Approximate
06:07PM -29.8146 157.2161 228° Southwest  Level FlightAware Approximate
06:08PM -29.8805 157.1313 228° Southwest  Level FlightAware Approximate
06:09PM -29.9464 157.0464 228° Southwest  Level FlightAware Approximate
06:09PM -30.0327 156.9349 48° Northeast 40,000  Level Aus ATC (Calculated)
06:11PM -30.1554 156.7758 228° Southwest  Level FlightAware Approximate
06:12PM -30.2211 156.6904 228° Southwest  Level FlightAware Approximate
06:13PM -30.2867 156.6050 228° Southwest  Level FlightAware Approximate
06:14PM -30.3522 156.5193 228° Southwest  Level FlightAware Approximate
06:14PM -30.4315 156.4156 49° Northeast 40,000  Level Aus ATC (Calculated)
06:16PM -30.5598 156.2470 228° Southwest  Level FlightAware Approximate
06:17PM -30.6284 156.1566 229° Southwest  Level FlightAware Approximate
06:17PM -29.1738 158.0337 229° Southwest 378 435 36,100  Level Aus ATC (RADAR)
06:17PM -29.1971 158.0049 227° Southwest 374 430 36,100  Level Aus ATC (RADAR)
06:18PM -29.2318 157.9617 227° Southwest 370 426 36,100  Level Aus ATC (RADAR)
06:18PM -29.2666 157.9193 227° Southwest 370 426 36,100  Level Aus ATC (RADAR)
06:19PM -29.3166 157.8547 228° Southwest 366 421 36,100  Level Aus ATC (RADAR)
06:19PM -29.3564 157.8047 228° Southwest 362 417 36,100  Level Aus ATC (RADAR)
06:20PM -29.3919 157.7565 230° Southwest 352 405 36,100  Level Aus ATC (RADAR)
06:21PM -29.4304 157.7075 228° Southwest 351 404 36,100  Level Aus ATC (RADAR)
06:22PM -29.5021 157.6161 228° Southwest 353 406 36,100  Level Aus ATC (RADAR)
06:22PM -29.5291 157.5811 228° Southwest 353 406 36,100  Level Aus ATC (RADAR)
06:23PM -29.5567 157.5459 228° Southwest 353 406 36,100  Level Aus ATC (RADAR)
06:23PM -29.5957 157.4963 228° Southwest 355 409 36,100  Level Aus ATC (RADAR)
06:24PM -29.6462 157.4319 228° Southwest 357 411 36,100  Level Aus ATC (RADAR)
06:24PM -29.6862 157.3815 228° Southwest 361 415 36,100  Level Aus ATC (RADAR)
06:25PM -29.7364 157.3173 228° Southwest 360 414 36,100  Level Aus ATC (RADAR)
06:26PM -29.7640 157.2816 228° Southwest 359 413 36,100  Level Aus ATC (RADAR)
06:26PM -29.8042 157.2307 228° Southwest 362 417 36,100  Level Aus ATC (RADAR)
06:27PM -29.8696 157.1456 228° Southwest 356 410 36,100  Level Aus ATC (RADAR)
06:28PM -29.8976 157.1094 228° Southwest 357 411 36,100  Level Aus ATC (RADAR)
06:28PM -29.9432 157.0512 228° Southwest 362 417 36,100  Level Aus ATC (RADAR)
06:29PM -29.9930 156.9869 228° Southwest 359 413 36,100  Level Aus ATC (RADAR)
06:30PM -30.0318 156.9367 228° Southwest 359 413 36,100  Level Aus ATC (RADAR)
06:30PM -30.0818 156.8720 228° Southwest 359 413 36,100  Level Aus ATC (RADAR)
06:31PM -30.1101 156.8356 228° Southwest 361 415 36,100  Level Aus ATC (RADAR)
06:31PM -30.1484 156.7857 228° Southwest 359 413 36,100  Level Aus ATC (RADAR)
06:32PM -30.2198 156.6927 228° Southwest 357 411 36,100  Level Aus ATC (RADAR)
06:33PM -30.2473 156.6567 229° Southwest 358 412 36,100  Level Aus ATC (RADAR)
06:33PM -30.2858 156.6066 228° Southwest 357 411 36,100  Level Aus ATC (RADAR)
06:34PM -30.3354 156.5419 228° Southwest 357 411 36,100  Level Aus ATC (RADAR)
06:35PM -30.3742 156.4915 228° Southwest 359 413 36,100  Level Aus ATC (RADAR)
06:35PM -30.4126 156.4408 229° Southwest 358 412 36,100  Level Aus ATC (RADAR)
06:36PM -30.4515 156.3900 228° Southwest 359 413 36,100  Level Aus ATC (RADAR)
06:37PM -30.4900 156.3393 229° Southwest 359 413 36,100  Level Aus ATC (RADAR)
06:38PM -30.5617 156.2451 228° Southwest 359 413 36,100  Level Aus ATC (RADAR)
06:38PM -30.5892 156.2087 229° Southwest 359 413 36,100  Level Aus ATC (RADAR)
06:39PM -30.6276 156.1581 229° Southwest 359 413 36,100  Level Aus ATC (RADAR)
06:39PM -30.6825 156.0856 229° Southwest 358 412 36,100  Level Aus ATC (RADAR)
06:40PM -30.7208 156.0348 229° Southwest 358 412 36,100  Level Aus ATC (RADAR)
06:41PM -30.7700 155.9697 229° Southwest 358 412 36,100  Level Aus ATC (RADAR)
06:41PM -30.7973 155.9337 229° Southwest 357 411 36,100  Level Aus ATC (RADAR)
06:42PM -30.8771 155.8643 217° Southwest 364 419 36,100  Level Aus ATC (RADAR)
06:43PM -30.9170 155.8430 205° Southwest 373 429 36,100  Level Aus ATC (RADAR)
06:43PM -30.9561 155.8211 206° Southwest 375 432 36,100  Level Aus ATC (RADAR)
06:44PM -31.0103 155.7909 205° Southwest 372 428 36,100  Level Aus ATC (RADAR)
06:44PM -31.0800 155.7519 206° Southwest 372 428 36,100  Level Aus ATC (RADAR)
06:45PM -31.1338 155.7218 206° Southwest 370 426 36,100  Level Aus ATC (RADAR)
06:46PM -31.2030 155.6830 206° Southwest 369 425 36,100  Level Aus ATC (RADAR)
06:46PM -31.2415 155.6614 206° Southwest 369 425 36,100  Level Aus ATC (RADAR)
06:47PM -31.2951 155.6313 206° Southwest 368 423 36,100  Level Aus ATC (RADAR)
06:48PM -31.3943 155.5756 206° Southwest 367 422 36,100  Level Aus ATC (RADAR)
06:48PM -31.4325 155.5540 206° Southwest 367 422 36,100  Level Aus ATC (RADAR)
06:49PM -31.4780 155.5283 206° Southwest 365 420 36,100  Level Aus ATC (RADAR)
06:49PM -31.5466 155.4895 206° Southwest 366 421 36,100  Level Aus ATC (RADAR)
06:50PM -31.6000 155.4592 206° Southwest 366 421 36,100  Level Aus ATC (RADAR)
06:51PM -31.6535 155.4291 206° Southwest 367 422 36,100  Level Aus ATC (RADAR)
06:51PM -31.7146 155.3941 206° Southwest 369 425 36,100  Level Aus ATC (RADAR)
06:52PM -31.7680 155.3637 206° Southwest 367 422 36,100  Level Aus ATC (RADAR)
06:53PM -31.8825 155.2987 206° Southwest 367 422 36,100  Level Aus ATC (RADAR)
06:53PM -31.9206 155.2769 206° Southwest 367 422 36,100  Level Aus ATC (RADAR)
06:54PM -31.9740 155.2465 206° Southwest 367 422 36,100  Level Aus ATC (RADAR)
06:55PM -32.0423 155.2075 206° Southwest 365 420 36,100  Level Aus ATC (RADAR)
06:55PM -32.0957 155.1767 206° Southwest 368 423 36,100  Level Aus ATC (RADAR)
06:56PM -32.1493 155.1462 206° Southwest 367 422 36,100  Level Aus ATC (RADAR)
06:57PM -32.2102 155.1109 206° Southwest 368 423 36,100  Level Aus ATC (RADAR)
06:58PM -32.3249 155.0449 206° Southwest 368 423 36,100  Level Aus ATC (RADAR)
06:58PM -32.3626 155.0236 206° Southwest 364 419 36,100  Level Aus ATC (RADAR)
06:59PM -32.3937 155.0052 207° Southwest 368 423 36,100  Level Aus ATC (RADAR)
06:59PM -32.4464 154.9750 206° Southwest 362 417 36,100  Level Aus ATC (RADAR)
07:00PM -32.5154 154.9352 206° Southwest 367 422 36,100  Level Aus ATC (RADAR)
07:01PM -32.5690 154.9041 206° Southwest 369 425 36,100  Level Aus ATC (RADAR)
07:01PM -32.6148 154.8779 206° Southwest 367 422 36,100  Level Aus ATC (RADAR)
07:02PM -32.6681 154.8468 206° Southwest 366 421 36,100  Level Aus ATC (RADAR)
07:02PM -32.7448 154.8019 206° Southwest 368 423 36,100  Level Aus ATC (RADAR)
07:03PM -32.7675 154.7887 206° Southwest 367 422 36,100  Level Aus ATC (RADAR)
07:03PM -32.8213 154.7574 206° Southwest 369 425 36,100  Level Aus ATC (RADAR)
07:04PM -32.8745 154.7263 206° Southwest 369 425 36,100  Level Aus ATC (RADAR)
07:04PM -32.9282 154.6951 206° Southwest 369 425 36,100  Level Aus ATC (RADAR)
07:05PM -32.9741 154.6676 207° Southwest 370 426 36,100  Level Aus ATC (RADAR)
07:06PM -33.0283 154.6357 206° Southwest 372 428 36,100  Level Aus ATC (RADAR)
07:06PM -33.0822 154.6040 206° Southwest 371 427 36,100  Level Aus ATC (RADAR)
07:07PM -33.1449 154.5676 206° Southwest 375 432 36,100  Level Aus ATC (RADAR)
07:08PM -33.2381 154.5127 206° Southwest 376 433 36,100  Level Aus ATC (RADAR)
07:08PM -33.2776 154.4898 206° Southwest 378 435 36,100  Level Aus ATC (RADAR)
07:09PM -33.3162 154.4665 207° Southwest 377 434 36,100  Level Aus ATC (RADAR)
07:09PM -33.3707 154.4342 206° Southwest 376 433 36,100  Level Aus ATC (RADAR)
07:10PM -33.4496 154.3876 206° Southwest 380 437 36,100  Level Aus ATC (RADAR)
07:11PM -33.5052 154.3551 206° Southwest 381 438 36,100  Level Aus ATC (RADAR)
07:11PM -33.5763 154.3129 206° Southwest 382 440 36,100  Level Aus ATC (RADAR)
07:12PM -33.6152 154.2894 207° Southwest 380 437 36,100  Level Aus ATC (RADAR)
07:13PM -33.7502 154.2090 206° Southwest 383 441 36,100  Level Aus ATC (RADAR)
07:14PM -33.7936 154.1834 206° Southwest 378 435 36,100  Level Aus ATC (RADAR)
07:14PM -33.8291 154.1617 207° Southwest 381 438 36,100  Level Aus ATC (RADAR)
07:15PM -33.8882 154.1249 207° Southwest 381 438 36,100  Level Aus ATC (RADAR)
07:15PM -33.9189 154.0448 245° Southwest 370 426 36,100  Level Aus ATC (RADAR)
07:16PM -33.9221 153.9786 267° West 334 384 36,100  Level Aus ATC (RADAR)
07:17PM -33.9305 153.9113 261° West 334 384 36,100  Level Aus ATC (RADAR)
07:17PM -33.9373 153.8484 263° West 344 396 36,100  Level Aus ATC (RADAR)
07:18PM -33.9525 153.7223 262° West 348 400 36,100  Level Aus ATC (RADAR)
07:19PM -33.9602 153.6545 262° West 346 398 36,100  Level Aus ATC (RADAR)
07:19PM -33.9701 153.5822 261° West 339 390 36,100  Level Aus ATC (RADAR)
07:20PM -33.9782 153.4990 263° West 348 400 36,100  Level Aus ATC (RADAR)
07:21PM -33.9840 153.4499 262° West 351 404 36,100  Level Aus ATC (RADAR)
07:21PM -33.9917 153.3817 262° West 350 403 36,100  Level Aus ATC (RADAR)
07:22PM -34.0024 153.2897 262° West 340 391 36,100  Level Aus ATC (RADAR)
07:23PM -34.0101 153.2164 263° West 349 402 36,100 -120 Level Aus ATC (RADAR)
07:24PM -34.0260 153.0800 262° West 347 399 35,900 -720 Descending Aus ATC (RADAR)
07:24PM -34.0308 153.0325 263° West 344 396 35,000 -2,400 Descending Aus ATC (RADAR)
07:25PM -34.0383 152.9668 262° West 341 392 33,500 -3,900 Descending Aus ATC (RADAR)
07:25PM -34.0475 152.8783 263° West 364 419 29,800 -3,300 Descending Aus ATC (RADAR)
07:26PM -34.0569 152.8035 261° West 354 407 29,000 -1,500 Descending Aus ATC (RADAR)
07:27PM -34.0665 152.7149 262° West 347 399 27,800 -1,560 Descending Aus ATC (RADAR)
07:27PM -34.0715 152.6657 263° West 347 399 27,200 -1,800 Descending Aus ATC (RADAR)
07:28PM -34.0784 152.5235 267° West 350 403 24,900 -1,920 Descending Aus ATC (RADAR)
07:29PM -34.0734 152.4759 277° West 344 396 24,100 -2,040 Descending Aus ATC (RADAR)
07:29PM -34.0691 152.4283 276° West 342 394 23,200 -2,100 Descending Aus ATC (RADAR)
07:30PM -34.0629 152.3605 276° West 347 399 22,000 -2,160 Descending Aus ATC (RADAR)
07:31PM -34.0533 152.2638 277° West 347 399 20,200 -2,580 Descending Aus ATC (RADAR)
07:31PM -34.0470 152.1963 276° West 349 402 18,400 -3,420 Descending Aus ATC (RADAR)
07:32PM -34.0386 152.1012 276° West 385 443 15,700 -2,940 Descending Aus ATC (RADAR)
07:32PM -34.0331 152.0478 277° West 384 442 15,000 -1,380 Descending Aus ATC (RADAR)
07:33PM -34.0216 151.9379 277° West 371 427 14,000 -1,080 Descending Aus ATC (RADAR)
07:34PM -34.0141 151.8646 277° West 369 425 13,500 -1,560 Descending Aus ATC (RADAR)
07:34PM -34.0070 151.7922 277° West 368 423 12,200 -2,400 Descending Aus ATC (RADAR)
07:35PM -33.9996 151.7207 277° West 364 419 10,700 -2,400 Descending Aus ATC (RADAR)
07:36PM -33.9917 151.6458 277° West 357 411 9,300 -1,860 Descending Aus ATC (RADAR)
07:36PM -33.9867 151.5953 277° West 331 381 8,700 -1,560 Descending Aus ATC (RADAR)
07:37PM -33.9800 151.5293 277° West 337 388 7,700 -1,380 Descending Aus ATC (RADAR)
07:37PM -33.9718 151.4527 277° West 337 388 7,000 -840 Descending Aus ATC (RADAR)
07:39PM -34.0101 151.3575 244° Southwest 302 348 6,200 -660 Descending Aus ATC (RADAR)
07:39PM -34.0426 151.3472 195° South 292 336 6,000 -600 Descending Aus ATC (RADAR)
07:39PM -34.0757 151.3543 170° South 289 333 5,700 -840 Descending Aus ATC (RADAR)
07:40PM -34.1212 151.3664 168° South 286 329 5,200 -1,020 Descending Aus ATC (RADAR)
07:41PM -34.1781 151.3600 185° South 285 328 4,400 -840 Descending Aus ATC (RADAR)
07:41PM -34.2046 151.3187 232° Southwest 261 300 4,100 -480 Descending Aus ATC (RADAR)
07:42PM -34.2002 151.2759 277° West 227 261 3,900 -300 Descending Aus ATC (RADAR)
07:42PM -34.1742 151.2503 321° Northwest 206 237 3,800 -600 Descending Aus ATC (RADAR)
07:44PM -34.1164 151.2316 345° North 199 229 2,900 -900 Descending Aus ATC (RADAR)
07:44PM -34.0940 151.2259 348° North 199 229 2,500 -1,020 Descending Aus ATC (RADAR)
07:44PM -34.0723 151.2203 348° North 192 221 2,100 -1,020 Descending Aus ATC (RADAR)
07:45PM -34.0457 151.2133 348° North 167 192 1,500 -900 Descending Aus ATC (RADAR)
07:46PM -34.0153 151.2055 348° North 136 157 900 -780 Descending Aus ATC (RADAR)
07:46PM -33.9937 151.1999 348° North 135 155 500 -720 Descending Aus ATC (RADAR)
07:47PM -33.9613 151.1913 348° North 135 155 -600 Descending Aus ATC (RADAR)
07:47PM -33.9565 151.1899 346° North 104 120  Level Aus ATC (RADAR)